sim
Sign-in with your pilot id or email,
or register
Callsign
Passwort

Schedule Details

Flight Number: RYR3701 (1)
Departure: East Midlands Airport (EGNX) at 07:10
Arrival: Fuerteventura Airport (GCFV) at 11:25
Route: Ryanair Passenger Schedule. Enter filed route here before submitting Pirep.

Weather Information
Getting current METAR information for EGNX 160250Z 20013KT 9999 SCT020 07/05 Q1019
Getting current METAR information for GCFV 160230Z AUTO 28005KT 9999 NCD 13/10 Q1018

Schedule Frequency

Route Map